Time;durP1;ratioP1;P1;durP2;ratioP2;P2;SDS_P1;SDS_P2;PMS_P1;PMS_P2;Temp;Humidity;BMP_temperature;BMP_pressure;BME280_temperature;BME280_humidity;BME280_pressure;Samples;Min_cycle;Max_cycle;Signal;HPM_P1;HPM_P2
2021/08/22 00:00:19;;;;;;;2.90;2.58;;;18.40;99.90;;;;;;4972744;28;20459;-80
2021/08/22 00:02:45;;;;;;;3.25;2.72;;;18.40;99.90;;;;;;4972502;28;20208;-81
2021/08/22 00:05:11;;;;;;;3.53;2.78;;;18.40;99.90;;;;;;4972859;28;20347;-80
2021/08/22 00:07:36;;;;;;;3.38;2.92;;;18.40;99.90;;;;;;4971341;28;20188;-79
2021/08/22 00:10:04;;;;;;;3.13;2.72;;;18.40;99.90;;;;;;4971969;28;20331;-79
2021/08/22 00:12:29;;;;;;;2.60;2.40;;;18.40;99.90;;;;;;4970376;28;20213;-81
2021/08/22 00:14:55;;;;;;;2.97;2.70;;;18.40;99.90;;;;;;4970734;28;20188;-80
2021/08/22 00:17:21;;;;;;;2.80;2.40;;;18.40;99.90;;;;;;4970327;28;20197;-81
2021/08/22 00:19:46;;;;;;;4.30;2.55;;;18.40;99.90;;;;;;4960723;28;20217;-79
2021/08/22 00:22:13;;;;;;;3.00;2.70;;;18.50;99.90;;;;;;4962567;28;20199;-80
2021/08/22 00:24:38;;;;;;;3.22;2.92;;;18.50;99.90;;;;;;4969791;28;20268;-81
2021/08/22 00:27:04;;;;;;;3.97;2.58;;;18.40;99.90;;;;;;4968649;28;20603;-80
2021/08/22 00:29:30;;;;;;;4.18;3.10;;;18.50;99.90;;;;;;4970955;28;20208;-80
2021/08/22 00:31:56;;;;;;;4.47;2.45;;;18.40;99.90;;;;;;4975561;28;20244;-80
2021/08/22 00:34:22;;;;;;;3.58;2.85;;;18.40;99.90;;;;;;4969036;28;20556;-80
2021/08/22 00:36:48;;;;;;;3.72;2.00;;;18.30;99.90;;;;;;4984537;28;20181;-80
2021/08/22 00:39:13;;;;;;;2.63;2.42;;;18.30;99.90;;;;;;4967714;28;20749;-80
2021/08/22 00:41:40;;;;;;;3.63;2.85;;;18.20;99.90;;;;;;4968781;28;20749;-79
2021/08/22 00:44:06;;;;;;;3.47;2.47;;;18.20;99.90;;;;;;4969850;28;20189;-80
2021/08/22 00:46:34;;;;;;;3.30;3.00;;;18.20;99.90;;;;;;4969728;28;20216;-80
2021/08/22 00:48:59;;;;;;;3.28;2.90;;;18.20;99.90;;;;;;4960750;28;20280;-80
2021/08/22 00:51:25;;;;;;;4.32;3.05;;;18.10;99.90;;;;;;4960961;28;20177;-80
2021/08/22 00:53:50;;;;;;;3.95;3.22;;;18.10;99.90;;;;;;4968275;28;20263;-80
2021/08/22 00:56:16;;;;;;;4.03;3.22;;;18.00;99.90;;;;;;4976935;28;20556;-80
2021/08/22 00:58:43;;;;;;;3.40;2.80;;;17.90;99.90;;;;;;4967444;28;20228;-79
2021/08/22 01:01:16;;;;;;;3.42;3.13;;;17.90;99.90;;;;;;4967557;28;20185;-80
2021/08/22 01:04:06;;;;;;;3.80;3.30;;;17.90;99.90;;;;;;4967152;28;21110;-80
2021/08/22 01:06:52;;;;;;;3.47;2.97;;;17.90;99.90;;;;;;4974621;28;20221;-78
2021/08/22 01:09:25;;;;;;;4.38;3.13;;;17.80;99.90;;;;;;4980180;28;20327;-80
2021/08/22 01:11:51;;;;;;;3.75;2.90;;;17.80;99.90;;;;;;4972079;28;20192;-79
2021/08/22 01:14:23;;;;;;;3.50;3.17;;;17.80;99.90;;;;;;4988295;28;20216;-80
2021/08/22 01:16:54;;;;;;;4.68;2.95;;;17.80;99.90;;;;;;4964911;28;20235;-79
2021/08/22 01:20:00;;;;;;;4.38;3.15;;;17.60;99.90;;;;;;4972994;28;20219;-79
2021/08/22 01:22:28;;;;;;;3.30;3.00;;;17.50;99.90;;;;;;4964590;28;20200;-79
2021/08/22 01:24:56;;;;;;;3.58;3.00;;;17.40;99.90;;;;;;4979738;28;20180;-79
2021/08/22 01:27:22;;;;;;;3.97;3.25;;;17.30;99.90;;;;;;4973131;28;20195;-79
2021/08/22 01:30:05;;;;;;;4.22;3.47;;;17.20;99.90;;;;;;4973015;28;20229;-79
2021/08/22 01:32:41;;;;;;;4.75;3.72;;;17.10;99.90;;;;;;4973145;28;20261;-80
2021/08/22 01:35:10;;;;;;;4.70;3.22;;;17.10;99.90;;;;;;4972742;28;20195;-80
2021/08/22 01:37:38;;;;;;;4.32;3.90;;;17.00;99.90;;;;;;4972179;28;20301;-79
2021/08/22 01:40:06;;;;;;;4.15;3.40;;;17.00;99.90;;;;;;4975373;28;20181;-79
2021/08/22 01:42:33;;;;;;;4.65;4.10;;;17.00;99.90;;;;;;4975431;28;20184;-80
2021/08/22 01:45:00;;;;;;;3.53;3.20;;;16.90;99.90;;;;;;4973519;28;20184;-80
2021/08/22 01:47:26;;;;;;;3.97;3.30;;;16.80;99.90;;;;;;4975334;28;20189;-79
2021/08/22 01:49:52;;;;;;;4.43;3.47;;;16.70;99.90;;;;;;4973995;28;20235;-81
2021/08/22 01:52:18;;;;;;;4.13;3.72;;;16.60;99.90;;;;;;4987613;28;20690;-80
2021/08/22 01:54:44;;;;;;;4.72;3.78;;;16.50;99.90;;;;;;4968849;28;20196;-80
2021/08/22 01:57:10;;;;;;;4.97;4.20;;;16.50;99.90;;;;;;4975175;28;20683;-79
2021/08/22 01:59:36;;;;;;;5.05;3.70;;;16.40;99.90;;;;;;4965923;28;20328;-79
2021/08/22 02:02:03;;;;;;;5.40;4.13;;;16.30;99.90;;;;;;4975278;28;20216;-81
2021/08/22 02:04:47;;;;;;;5.30;4.15;;;16.20;99.90;;;;;;4965032;28;20180;-80
2021/08/22 02:07:19;;;;;;;4.85;4.03;;;16.10;99.90;;;;;;4989940;28;20678;-79
2021/08/22 02:09:48;;;;;;;4.28;3.88;;;16.10;99.90;;;;;;4975001;28;20212;-79
2021/08/22 02:12:17;;;;;;;4.93;4.28;;;16.10;99.90;;;;;;4982356;28;20187;-79
2021/08/22 02:14:48;;;;;;;5.13;4.30;;;16.00;99.90;;;;;;4981107;28;20319;-80
2021/08/22 02:17:15;;;;;;;4.97;4.13;;;15.90;99.90;;;;;;4973801;28;20340;-82
2021/08/22 02:19:42;;;;;;;5.03;4.22;;;15.80;99.90;;;;;;4972353;28;20366;-80
2021/08/22 02:22:09;;;;;;;6.72;4.85;;;15.80;99.90;;;;;;4972182;28;20213;-80
2021/08/22 02:24:34;;;;;;;4.53;4.00;;;15.70;99.90;;;;;;4962620;28;20243;-78
2021/08/22 02:27:00;;;;;;;5.53;4.10;;;15.60;99.90;;;;;;4978687;28;20185;-80
2021/08/22 02:29:25;;;;;;;4.78;4.20;;;15.50;99.90;;;;;;4962764;28;20769;-79
2021/08/22 02:31:51;;;;;;;4.43;3.97;;;15.40;99.90;;;;;;4972195;28;20552;-79
2021/08/22 02:34:17;;;;;;;4.95;4.45;;;15.40;99.90;;;;;;4969158;28;20240;-79
2021/08/22 02:36:42;;;;;;;5.10;4.07;;;15.30;99.90;;;;;;4970171;28;20203;-81
2021/08/22 02:39:08;;;;;;;5.60;4.22;;;15.30;99.90;;;;;;4963587;28;20374;-78
2021/08/22 02:41:33;;;;;;;5.45;4.80;;;15.30;99.90;;;;;;4971912;28;20188;-80
2021/08/22 02:43:59;;;;;;;5.32;4.82;;;15.30;99.90;;;;;;4971680;28;20693;-79
2021/08/22 02:46:24;;;;;;;5.28;4.43;;;15.40;99.90;;;;;;4969984;28;20655;-79
2021/08/22 02:48:50;;;;;;;5.45;4.38;;;15.30;99.90;;;;;;4971069;28;20204;-79
2021/08/22 02:51:16;;;;;;;6.25;4.65;;;15.30;99.90;;;;;;4972406;28;20193;-80
2021/08/22 02:53:41;;;;;;;5.05;4.55;;;15.30;99.90;;;;;;4970499;28;20219;-79
2021/08/22 02:56:07;;;;;;;5.75;4.53;;;15.20;99.90;;;;;;4971524;28;20189;-80
2021/08/22 02:58:33;;;;;;;7.22;5.05;;;15.20;99.90;;;;;;4968770;28;20287;-79
2021/08/22 03:00:58;;;;;;;5.88;4.60;;;15.20;99.90;;;;;;4970654;28;20694;-80
2021/08/22 03:03:24;;;;;;;4.88;4.32;;;15.10;99.90;;;;;;4976257;28;20228;-79
2021/08/22 03:05:49;;;;;;;5.53;4.63;;;15.10;99.90;;;;;;4969811;28;20177;-79
2021/08/22 03:08:17;;;;;;;5.60;4.78;;;15.00;99.90;;;;;;4967769;28;20735;-79
2021/08/22 03:10:44;;;;;;;6.45;4.68;;;15.00;99.90;;;;;;4969969;28;20191;-79
2021/08/22 03:13:10;;;;;;;5.38;4.53;;;15.00;99.90;;;;;;4969123;28;20306;-80
2021/08/22 03:15:36;;;;;;;4.78;4.35;;;15.00;99.90;;;;;;4968224;28;20220;-80
2021/08/22 03:18:02;;;;;;;5.03;4.50;;;14.90;99.90;;;;;;4969382;28;20731;-78
2021/08/22 03:20:27;;;;;;;5.28;4.78;;;14.80;99.90;;;;;;4970796;28;20275;-79
2021/08/22 03:22:53;;;;;;;6.97;5.53;;;14.90;99.90;;;;;;4958571;28;20204;-79
2021/08/22 03:25:18;;;;;;;5.20;4.68;;;14.80;99.90;;;;;;4968952;28;20546;-79
2021/08/22 03:27:44;;;;;;;6.20;5.07;;;14.70;99.90;;;;;;4969189;28;20217;-79
2021/08/22 03:30:10;;;;;;;5.45;4.75;;;14.70;99.90;;;;;;4969108;28;20212;-81
2021/08/22 03:32:36;;;;;;;7.32;4.90;;;14.70;99.90;;;;;;4973309;28;20212;-80
2021/08/22 03:35:02;;;;;;;5.78;4.97;;;14.70;99.90;;;;;;4967243;28;20579;-80
2021/08/22 03:37:27;;;;;;;6.75;5.55;;;14.70;99.90;;;;;;4970569;28;20648;-80
2021/08/22 03:39:53;;;;;;;5.50;4.88;;;14.70;99.90;;;;;;4947254;23;20240;-70
2021/08/22 03:42:18;;;;;;;6.40;5.80;;;14.70;99.90;;;;;;4956032;28;20677;-70
2021/08/22 03:44:44;;;;;;;6.90;5.78;;;14.70;99.90;;;;;;4947310;28;20205;-69
2021/08/22 03:47:10;;;;;;;8.15;5.20;;;14.80;99.90;;;;;;4949406;28;20221;-70
2021/08/22 03:49:36;;;;;;;6.15;5.38;;;14.80;99.90;;;;;;4936872;28;20189;-70
2021/08/22 03:52:02;;;;;;;6.43;5.43;;;14.80;99.90;;;;;;4934835;28;20201;-70
2021/08/22 03:54:27;;;;;;;6.38;5.03;;;14.80;99.90;;;;;;4950362;28;20190;-70
2021/08/22 03:56:53;;;;;;;6.20;5.47;;;14.80;99.90;;;;;;4947285;28;20216;-70
2021/08/22 03:59:19;;;;;;;7.43;5.60;;;14.70;99.90;;;;;;4951158;28;20245;-70
2021/08/22 04:01:44;;;;;;;6.90;6.05;;;14.70;99.90;;;;;;4948236;28;20177;-70
2021/08/22 04:04:10;;;;;;;6.63;5.28;;;14.60;99.90;;;;;;4939571;28;20217;-70
2021/08/22 04:06:37;;;;;;;7.05;6.07;;;14.60;99.90;;;;;;4952387;28;20675;-70
2021/08/22 04:09:03;;;;;;;7.13;5.75;;;14.50;99.90;;;;;;4952752;28;20266;-70
2021/08/22 04:11:29;;;;;;;7.43;5.72;;;14.50;99.90;;;;;;4932311;28;20185;-70
2021/08/22 04:13:55;;;;;;;5.90;5.30;;;14.40;99.90;;;;;;4956304;28;20319;-70
2021/08/22 04:16:21;;;;;;;7.88;5.32;;;14.40;99.90;;;;;;4934334;28;20684;-70
2021/08/22 04:18:46;;;;;;;6.03;5.40;;;14.40;99.90;;;;;;4954362;28;20177;-69
2021/08/22 04:21:12;;;;;;;6.28;5.10;;;14.50;99.90;;;;;;4931197;28;20189;-69
2021/08/22 04:23:38;;;;;;;6.38;5.40;;;14.60;99.90;;;;;;4951971;28;20215;-72
2021/08/22 04:26:04;;;;;;;6.35;5.30;;;14.60;99.90;;;;;;4951030;28;20296;-71
2021/08/22 04:28:30;;;;;;;6.78;4.95;;;14.70;99.90;;;;;;4950511;28;20204;-70
2021/08/22 04:30:55;;;;;;;7.05;5.70;;;14.70;99.90;;;;;;4941326;28;20189;-71
2021/08/22 04:33:21;;;;;;;6.82;5.53;;;14.80;99.90;;;;;;4950227;28;20278;-72
2021/08/22 04:35:47;;;;;;;6.47;4.82;;;15.00;99.90;;;;;;4936690;28;20235;-70
2021/08/22 04:38:12;;;;;;;6.30;5.40;;;15.20;99.90;;;;;;4949628;28;20201;-69
2021/08/22 04:40:38;;;;;;;6.50;5.40;;;15.30;99.90;;;;;;4954666;28;20193;-70
2021/08/22 04:43:05;;;;;;;6.78;5.20;;;15.40;99.90;;;;;;4956754;28;20282;-70
2021/08/22 04:45:31;;;;;;;6.75;5.32;;;15.50;99.90;;;;;;4948385;28;20185;-71
2021/08/22 04:47:56;;;;;;;6.70;5.90;;;15.60;99.90;;;;;;4954236;28;20259;-70
2021/08/22 04:50:22;;;;;;;7.15;5.38;;;15.80;99.90;;;;;;4952381;28;20201;-72
2021/08/22 04:52:47;;;;;;;5.82;5.22;;;16.00;99.90;;;;;;4945622;28;20209;-70
2021/08/22 04:55:13;;;;;;;7.97;5.50;;;16.10;99.90;;;;;;4951924;28;20320;-70
2021/08/22 04:57:39;;;;;;;5.68;5.15;;;16.20;99.90;;;;;;4951877;28;20220;-69
2021/08/22 05:00:05;;;;;;;7.95;5.90;;;16.30;99.90;;;;;;4954312;28;20181;-69
2021/08/22 05:02:30;;;;;;;5.57;4.93;;;16.40;99.90;;;;;;4948679;28;20186;-70
2021/08/22 05:04:56;;;;;;;5.57;4.63;;;16.50;99.90;;;;;;4929278;28;20186;-69
2021/08/22 05:07:22;;;;;;;7.32;5.32;;;16.50;99.90;;;;;;4946427;28;20209;-70
2021/08/22 05:09:48;;;;;;;6.13;4.85;;;16.60;99.90;;;;;;4950406;28;20173;-71
2021/08/22 05:12:14;;;;;;;6.68;5.43;;;16.60;99.90;;;;;;4937513;28;20204;-69
2021/08/22 05:14:39;;;;;;;5.40;4.40;;;16.80;99.90;;;;;;4952418;28;20185;-69
2021/08/22 05:17:05;;;;;;;4.97;4.38;;;16.80;99.90;;;;;;4952200;28;20209;-70
2021/08/22 05:19:31;;;;;;;5.72;4.85;;;16.70;99.90;;;;;;4936777;28;20220;-68
2021/08/22 05:21:57;;;;;;;7.20;5.20;;;16.70;99.90;;;;;;4947044;28;20193;-68
2021/08/22 05:24:24;;;;;;;7.32;5.72;;;16.60;99.90;;;;;;4932005;28;20198;-68
2021/08/22 05:26:49;;;;;;;7.18;5.75;;;16.60;99.90;;;;;;4958407;28;20700;-67
2021/08/22 05:29:16;;;;;;;7.60;5.75;;;16.50;99.90;;;;;;4954664;28;20204;-70
2021/08/22 05:31:42;;;;;;;6.93;5.43;;;16.50;99.90;;;;;;4954048;28;20193;-68
2021/08/22 05:34:08;;;;;;;9.25;6.05;;;16.30;99.90;;;;;;4954664;28;20213;-68
2021/08/22 05:36:35;;;;;;;6.80;5.28;;;16.30;99.90;;;;;;4959921;28;20716;-66
2021/08/22 05:39:02;;;;;;;8.27;5.75;;;16.30;99.90;;;;;;4953232;28;20294;-66
2021/08/22 05:41:30;;;;;;;6.55;5.45;;;16.20;99.90;;;;;;4954256;28;20658;-66
2021/08/22 05:43:56;;;;;;;6.55;5.18;;;16.20;99.90;;;;;;4937987;28;20186;-65
2021/08/22 05:46:22;;;;;;;6.38;4.95;;;16.20;99.90;;;;;;4951899;28;20221;-67
2021/08/22 05:48:48;;;;;;;7.70;5.30;;;16.30;99.90;;;;;;4955705;28;20541;-67
2021/08/22 05:51:21;;;;;;;6.25;5.25;;;16.20;99.90;;;;;;4958959;28;21026;-67
2021/08/22 05:53:50;;;;;;;7.03;5.63;;;16.20;99.90;;;;;;4930799;28;20552;-66
2021/08/22 05:56:18;;;;;;;7.00;6.10;;;16.20;99.90;;;;;;4934227;28;20206;-67
2021/08/22 05:58:45;;;;;;;7.28;5.47;;;16.20;99.90;;;;;;4958226;28;20178;-66
2021/08/22 06:01:11;;;;;;;8.07;5.88;;;16.20;99.90;;;;;;4960295;28;20184;-65
2021/08/22 06:03:43;;;;;;;8.63;6.03;;;16.20;99.90;;;;;;4932616;28;20646;-67
2021/08/22 06:06:09;;;;;;;7.35;5.85;;;16.20;99.90;;;;;;4944489;28;20219;-67
2021/08/22 06:08:59;;;;;;;10.82;5.95;;;16.20;99.90;;;;;;4955726;28;20649;-67
2021/08/22 06:11:25;;;;;;;10.27;6.20;;;16.20;99.90;;;;;;4950768;28;20268;-66
2021/08/22 06:13:51;;;;;;;8.50;5.60;;;16.10;99.90;;;;;;4953311;28;20561;-65
2021/08/22 06:16:16;;;;;;;7.65;5.65;;;16.20;99.90;;;;;;4938376;28;20272;-66
2021/08/22 06:18:58;;;;;;;7.68;5.80;;;16.10;99.90;;;;;;4939229;28;20228;-66
2021/08/22 06:21:55;;;;;;;8.35;5.95;;;16.10;99.90;;;;;;4963077;28;20215;-68
2021/08/22 06:24:21;;;;;;;8.05;5.88;;;16.20;99.90;;;;;;4933450;28;20192;-67
2021/08/22 06:26:47;;;;;;;7.00;5.53;;;16.40;99.90;;;;;;4950008;28;20245;-68
2021/08/22 06:29:12;;;;;;;8.88;5.70;;;16.30;99.90;;;;;;4947173;28;20225;-68
2021/08/22 06:31:38;;;;;;;8.02;5.80;;;16.30;99.90;;;;;;4948763;28;20212;-68
2021/08/22 06:34:07;;;;;;;7.53;5.85;;;16.30;99.90;;;;;;4945717;28;20260;-68
2021/08/22 06:36:32;;;;;;;7.78;5.75;;;16.30;99.90;;;;;;4954947;28;20301;-67
2021/08/22 06:38:58;;;;;;;8.10;6.18;;;16.40;99.90;;;;;;4952431;28;20328;-66
2021/08/22 06:41:24;;;;;;;9.05;6.13;;;16.30;99.90;;;;;;4947468;28;20185;-67
2021/08/22 06:43:49;;;;;;;11.25;6.50;;;16.30;99.90;;;;;;4948955;28;20204;-69
2021/08/22 06:46:15;;;;;;;8.20;6.45;;;16.30;99.90;;;;;;4938576;28;20797;-67
2021/08/22 06:48:40;;;;;;;7.78;6.30;;;16.30;99.90;;;;;;4951521;28;20754;-68
2021/08/22 06:51:06;;;;;;;9.07;6.22;;;16.20;99.90;;;;;;4948408;28;20189;-67
2021/08/22 06:53:31;;;;;;;8.05;6.07;;;16.30;99.90;;;;;;4953058;28;20217;-68
2021/08/22 06:55:57;;;;;;;7.90;6.10;;;16.40;99.90;;;;;;4953878;28;20204;-69
2021/08/22 06:58:23;;;;;;;9.10;6.38;;;16.50;99.90;;;;;;4948795;28;20200;-69
2021/08/22 07:00:49;;;;;;;7.32;5.55;;;16.60;99.90;;;;;;4951244;28;20185;-70
2021/08/22 07:03:15;;;;;;;8.48;6.30;;;16.60;99.90;;;;;;4953238;28;20180;-68
2021/08/22 07:05:40;;;;;;;9.93;6.57;;;16.70;99.90;;;;;;4958172;28;20207;-68
2021/08/22 07:08:06;;;;;;;8.57;6.28;;;16.70;99.90;;;;;;4956380;28;21234;-68
2021/08/22 07:10:31;;;;;;;8.38;6.00;;;16.80;99.90;;;;;;4960377;28;20335;-69
2021/08/22 07:12:57;;;;;;;6.93;6.15;;;16.90;99.90;;;;;;4956903;28;20692;-69
2021/08/22 07:15:22;;;;;;;7.82;6.30;;;17.00;99.90;;;;;;4956929;28;20227;-68
2021/08/22 07:17:48;;;;;;;10.52;6.05;;;17.10;99.90;;;;;;4953215;28;20197;-68
2021/08/22 07:20:14;;;;;;;8.15;6.60;;;17.20;99.90;;;;;;4955486;28;20181;-70
2021/08/22 07:22:39;;;;;;;6.82;5.65;;;17.20;99.90;;;;;;4953058;28;20711;-70
2021/08/22 07:25:06;;;;;;;7.22;6.18;;;17.30;99.90;;;;;;4959019;28;20272;-69
2021/08/22 07:27:31;;;;;;;7.50;5.60;;;17.20;99.90;;;;;;4953958;28;20220;-68
2021/08/22 07:29:57;;;;;;;10.15;6.18;;;17.20;99.90;;;;;;4955164;28;20654;-70
2021/08/22 07:32:23;;;;;;;7.95;6.18;;;17.20;99.90;;;;;;4957128;28;20193;-69
2021/08/22 07:34:49;;;;;;;8.20;6.13;;;17.20;99.90;;;;;;4956369;28;20196;-68
2021/08/22 07:37:15;;;;;;;7.25;6.03;;;17.10;99.90;;;;;;4955712;28;20236;-70
2021/08/22 07:39:40;;;;;;;7.53;5.35;;;17.20;99.90;;;;;;4956305;28;20205;-69
2021/08/22 07:42:06;;;;;;;6.75;5.90;;;17.10;99.90;;;;;;4956493;28;20668;-69
2021/08/22 07:44:31;;;;;;;9.63;5.78;;;17.10;99.90;;;;;;4954116;28;20189;-68
2021/08/22 07:46:57;;;;;;;6.85;5.28;;;17.00;99.90;;;;;;4955235;28;20210;-70
2021/08/22 07:49:23;;;;;;;6.20;5.40;;;16.90;99.90;;;;;;4955086;28;20649;-68
2021/08/22 07:51:49;;;;;;;6.15;5.55;;;16.90;99.90;;;;;;4935271;28;20182;-67
2021/08/22 07:54:16;;;;;;;8.52;5.93;;;16.90;99.90;;;;;;4953418;28;20288;-68
2021/08/22 07:56:44;;;;;;;7.05;5.68;;;17.00;99.90;;;;;;4933690;28;20209;-69
2021/08/22 07:59:10;;;;;;;8.38;6.53;;;17.10;99.90;;;;;;4955355;28;20311;-68
2021/08/22 08:01:36;;;;;;;6.75;5.63;;;17.20;99.90;;;;;;4956986;28;20189;-68
2021/08/22 08:04:03;;;;;;;6.20;5.30;;;17.40;99.90;;;;;;4955523;28;20201;-68
2021/08/22 08:06:28;;;;;;;8.55;6.05;;;17.60;99.90;;;;;;4958890;28;20224;-66
2021/08/22 08:08:54;;;;;;;6.43;5.78;;;17.70;99.90;;;;;;4952177;28;20653;-69
2021/08/22 08:11:20;;;;;;;5.95;5.10;;;17.70;99.90;;;;;;4952530;28;20207;-67
2021/08/22 08:13:45;;;;;;;7.38;5.50;;;17.70;99.90;;;;;;4953263;28;20197;-67
2021/08/22 08:16:11;;;;;;;7.85;5.18;;;17.70;99.90;;;;;;4947906;28;20208;-68
2021/08/22 08:18:37;;;;;;;6.75;5.15;;;17.70;99.90;;;;;;4950675;28;20193;-68
2021/08/22 08:21:03;;;;;;;7.60;5.30;;;17.70;99.90;;;;;;4952754;28;20288;-67
2021/08/22 08:23:30;;;;;;;6.75;5.28;;;17.80;99.90;;;;;;4949933;28;20216;-68
2021/08/22 08:25:57;;;;;;;5.90;4.75;;;17.90;99.90;;;;;;4948558;28;20318;-69
2021/08/22 08:28:23;;;;;;;6.65;5.28;;;17.90;99.90;;;;;;4954043;28;20540;-69
2021/08/22 08:30:49;;;;;;;6.97;4.93;;;17.90;99.90;;;;;;4959793;28;20280;-69
2021/08/22 08:33:15;;;;;;;7.38;5.03;;;18.00;99.90;;;;;;4952005;28;20300;-67
2021/08/22 08:35:41;;;;;;;7.30;5.43;;;18.00;99.90;;;;;;4945755;28;20549;-67
2021/08/22 08:38:06;;;;;;;5.45;4.95;;;18.10;99.90;;;;;;4954264;28;20284;-69
2021/08/22 08:40:33;;;;;;;5.47;4.60;;;18.10;99.90;;;;;;4952629;28;20189;-70
2021/08/22 08:43:04;;;;;;;8.35;5.30;;;18.10;99.90;;;;;;4946462;28;20189;-69
2021/08/22 08:45:56;;;;;;;5.13;4.00;;;18.10;99.90;;;;;;4950216;28;20200;-68
2021/08/22 08:48:39;;;;;;;6.18;4.72;;;18.00;99.90;;;;;;4951583;28;20208;-67
2021/08/22 08:51:19;;;;;;;5.35;4.80;;;17.90;99.90;;;;;;4950675;28;20212;-67
2021/08/22 08:54:00;;;;;;;5.18;4.68;;;17.90;99.90;;;;;;4955616;28;20205;-68
2021/08/22 08:56:30;;;;;;;4.90;4.07;;;17.90;99.90;;;;;;4951932;28;20207;-67
2021/08/22 08:58:57;;;;;;;6.70;6.05;;;18.10;99.90;;;;;;4954206;28;20169;-68
2021/08/22 09:01:23;;;;;;;5.65;4.70;;;18.20;99.90;;;;;;4953966;28;20190;-67
2021/08/22 09:04:12;;;;;;;4.57;4.15;;;18.30;99.90;;;;;;4950499;28;20200;-68
2021/08/22 09:07:07;;;;;;;5.57;4.72;;;18.40;99.90;;;;;;4953412;28;20244;-67
2021/08/22 09:10:24;;;;;;;5.13;4.40;;;18.60;99.90;;;;;;4948500;28;20661;-68
2021/08/22 09:13:27;;;;;;;5.28;4.32;;;18.70;99.90;;;;;;4912896;28;20294;-68
2021/08/22 09:16:17;;;;;;;4.03;3.63;;;18.80;99.90;;;;;;4944558;28;20283;-67
2021/08/22 09:19:20;;;;;;;4.90;3.85;;;18.90;99.90;;;;;;4952298;28;20181;-67
2021/08/22 09:22:16;;;;;;;4.13;3.60;;;19.10;99.90;;;;;;4954355;28;20200;-68
2021/08/22 09:24:57;;;;;;;3.97;3.58;;;19.30;99.90;;;;;;4944422;28;20220;-67
2021/08/22 09:28:00;;;;;;;3.85;3.15;;;19.60;99.90;;;;;;4954710;28;20231;-68
2021/08/22 09:30:47;;;;;;;2.85;2.55;;;19.80;99.90;;;;;;4951080;28;20177;-69
2021/08/22 09:33:40;;;;;;;3.17;2.88;;;19.70;99.90;;;;;;4960166;28;20260;-67
2021/08/22 09:36:24;;;;;;;3.38;2.80;;;19.70;99.90;;;;;;4957435;28;20236;-67
2021/08/22 09:39:24;;;;;;;4.22;3.20;;;19.70;99.90;;;;;;4960479;28;20195;-67
2021/08/22 09:42:05;;;;;;;4.40;3.00;;;19.80;99.90;;;;;;4964359;28;20652;-68
2021/08/22 09:44:46;;;;;;;4.00;3.40;;;20.00;99.90;;;;;;4959464;28;20196;-68
2021/08/22 09:47:41;;;;;;;3.60;3.30;;;20.40;99.90;;;;;;4956942;28;20197;-67
2021/08/22 09:50:32;;;;;;;3.90;3.30;;;20.60;99.90;;;;;;4948523;28;20256;-68
2021/08/22 09:53:39;;;;;;;3.50;3.20;;;20.60;99.90;;;;;;4954972;28;20288;-69
2021/08/22 09:56:42;;;;;;;3.83;3.42;;;20.90;99.90;;;;;;4888723;29;20207;-67
2021/08/22 09:59:29;;;;;;;3.70;3.10;;;21.10;99.90;;;;;;4956585;28;20191;-68
2021/08/22 10:02:23;;;;;;;3.45;3.10;;;21.40;99.90;;;;;;4948822;28;20181;-67
2021/08/22 10:05:08;;;;;;;3.53;2.92;;;21.30;99.90;;;;;;4946871;28;20217;-67
2021/08/22 10:07:49;;;;;;;6.32;3.47;;;21.50;99.90;;;;;;4957219;28;20267;-67
2021/08/22 10:10:27;;;;;;;3.90;3.17;;;21.70;99.90;;;;;;4950824;28;20626;-67
2021/08/22 10:12:52;;;;;;;3.55;3.25;;;21.90;99.90;;;;;;4927678;28;20268;-66
2021/08/22 10:15:19;;;;;;;3.40;3.10;;;22.10;99.90;;;;;;4949938;28;20193;-68
2021/08/22 10:17:50;;;;;;;5.07;3.72;;;22.30;99.90;;;;;;4960103;28;20194;-67
2021/08/22 10:20:16;;;;;;;4.93;3.65;;;22.30;99.90;;;;;;4955934;28;20177;-69
2021/08/22 10:22:42;;;;;;;4.15;3.75;;;22.50;99.90;;;;;;4949543;28;20455;-70
2021/08/22 10:25:17;;;;;;;3.85;3.20;;;22.60;99.90;;;;;;4947756;28;20205;-68
2021/08/22 10:27:47;;;;;;;5.60;3.63;;;22.80;99.90;;;;;;4955082;28;20208;-67
2021/08/22 10:30:13;;;;;;;4.05;3.67;;;23.00;99.90;;;;;;4948583;28;20192;-67
2021/08/22 10:32:57;;;;;;;5.25;3.63;;;23.10;99.90;;;;;;4948914;28;20205;-67
2021/08/22 10:35:24;;;;;;;4.50;4.07;;;22.90;99.90;;;;;;4947717;28;20190;-68
2021/08/22 10:37:50;;;;;;;4.15;3.75;;;22.90;99.90;;;;;;4952265;28;20208;-68
2021/08/22 10:40:21;;;;;;;4.75;3.88;;;23.00;99.90;;;;;;4949996;28;20217;-67
2021/08/22 10:43:09;;;;;;;4.10;3.70;;;23.10;99.90;;;;;;4953263;28;20181;-67
2021/08/22 10:45:47;;;;;;;4.25;3.85;;;23.10;99.90;;;;;;4952706;28;20187;-68
2021/08/22 10:48:22;;;;;;;5.68;4.38;;;23.10;99.90;;;;;;4954441;28;20521;-68
2021/08/22 10:50:57;;;;;;;4.05;3.50;;;23.10;99.90;;;;;;4948139;28;20208;-68
2021/08/22 10:53:29;;;;;;;4.32;3.75;;;22.90;99.90;;;;;;4957224;28;20283;-68
2021/08/22 10:55:56;;;;;;;4.60;3.90;;;22.60;99.90;;;;;;4948547;28;20206;-67
2021/08/22 10:59:04;;;;;;;4.15;3.60;;;22.10;99.90;;;;;;4953379;28;20209;-68
2021/08/22 11:01:31;;;;;;;4.10;3.70;;;21.80;99.90;;;;;;4948039;28;20192;-69
2021/08/22 11:04:10;;;;;;;5.05;4.03;;;21.90;99.90;;;;;;4953744;28;20197;-69
2021/08/22 11:06:51;;;;;;;4.38;3.83;;;22.10;99.90;;;;;;4948485;28;20206;-67
2021/08/22 11:09:36;;;;;;;5.55;3.90;;;22.30;99.90;;;;;;4952981;28;20181;-68
2021/08/22 11:12:02;;;;;;;4.18;3.78;;;22.50;99.90;;;;;;4949725;28;20252;-67
2021/08/22 11:14:27;;;;;;;5.28;4.03;;;22.90;99.90;;;;;;4953830;28;20217;-67
2021/08/22 11:16:57;;;;;;;3.45;3.10;;;23.30;99.90;;;;;;4951281;28;20205;-68
2021/08/22 11:19:23;;;;;;;3.45;3.15;;;23.70;99.90;;;;;;4947523;28;20190;-67
2021/08/22 11:21:49;;;;;;;3.83;3.50;;;23.80;99.90;;;;;;4947868;28;20645;-67
2021/08/22 11:24:16;;;;;;;4.03;3.60;;;23.70;99.90;;;;;;4954694;28;20212;-67
2021/08/22 11:26:42;;;;;;;4.10;3.70;;;23.70;99.90;;;;;;4944253;28;20213;-68
2021/08/22 11:29:07;;;;;;;3.83;3.50;;;23.80;99.90;;;;;;4947316;28;20728;-69
2021/08/22 11:31:35;;;;;;;3.92;3.55;;;23.70;99.90;;;;;;4951952;28;20200;-67
2021/08/22 11:34:14;;;;;;;3.60;3.30;;;23.80;99.90;;;;;;4955974;28;20233;-67
2021/08/22 11:36:41;;;;;;;3.65;2.97;;;23.70;99.90;;;;;;4957568;28;20196;-67
2021/08/22 11:39:12;;;;;;;4.53;3.90;;;23.90;99.90;;;;;;4957470;28;20252;-67
2021/08/22 11:41:42;;;;;;;3.30;3.00;;;24.00;99.90;;;;;;4929756;28;20912;-67
2021/08/22 11:44:08;;;;;;;4.40;3.92;;;24.00;99.90;;;;;;4946810;28;20533;-67
2021/08/22 11:46:34;;;;;;;4.95;3.90;;;23.90;99.90;;;;;;4951879;28;20209;-68
2021/08/22 11:49:01;;;;;;;4.03;3.42;;;24.20;99.90;;;;;;4946280;28;20213;-67
2021/08/22 11:51:27;;;;;;;3.92;3.42;;;24.30;99.90;;;;;;4952349;28;20200;-68
2021/08/22 11:53:53;;;;;;;3.75;3.15;;;24.20;99.90;;;;;;4945856;28;20204;-67
2021/08/22 11:56:23;;;;;;;3.60;3.30;;;23.70;99.90;;;;;;4950880;28;20739;-67
2021/08/22 11:58:49;;;;;;;3.88;3.17;;;23.70;99.90;;;;;;4946200;28;20177;-68
2021/08/22 12:01:18;;;;;;;3.75;3.40;;;23.60;99.90;;;;;;4946398;28;20228;-68
2021/08/22 12:03:58;;;;;;;3.60;3.30;;;23.60;99.90;;;;;;4958588;28;20189;-70
2021/08/22 12:06:24;;;;;;;4.57;3.50;;;23.60;99.90;;;;;;4953558;28;20283;-71
2021/08/22 12:08:50;;;;;;;3.53;3.10;;;23.60;99.90;;;;;;4952828;28;20594;-69
2021/08/22 12:11:17;;;;;;;3.83;3.40;;;23.60;99.90;;;;;;4946849;28;20253;-70
2021/08/22 12:13:45;;;;;;;3.17;2.85;;;23.70;99.90;;;;;;4946863;28;20278;-70
2021/08/22 12:16:40;;;;;;;3.40;3.00;;;23.90;99.90;;;;;;4932722;28;20220;-70
2021/08/22 12:19:19;;;;;;;3.58;3.28;;;24.00;99.90;;;;;;4955483;28;20207;-69
2021/08/22 12:21:46;;;;;;;4.18;3.15;;;23.90;99.90;;;;;;4955659;28;20228;-72
2021/08/22 12:24:29;;;;;;;3.25;2.95;;;23.40;99.90;;;;;;4950530;28;21104;-70
2021/08/22 12:26:56;;;;;;;3.35;2.88;;;23.70;99.90;;;;;;4950931;28;20217;-70
2021/08/22 12:29:29;;;;;;;3.08;2.65;;;24.10;99.90;;;;;;4954780;28;20652;-71
2021/08/22 12:31:56;;;;;;;2.90;2.60;;;24.40;99.90;;;;;;4947632;28;20193;-72
2021/08/22 12:34:22;;;;;;;4.10;2.80;;;24.50;99.90;;;;;;4949448;28;20259;-71
2021/08/22 12:36:48;;;;;;;3.72;3.03;;;24.30;99.90;;;;;;4953522;28;20212;-70
2021/08/22 12:39:19;;;;;;;3.67;3.13;;;24.00;99.90;;;;;;4954630;28;20192;-69
2021/08/22 12:41:47;;;;;;;3.00;2.72;;;23.70;99.90;;;;;;4956543;28;20737;-69
2021/08/22 12:44:14;;;;;;;3.33;2.80;;;23.70;99.90;;;;;;4951820;28;20200;-70
2021/08/22 12:46:41;;;;;;;3.10;2.78;;;23.70;99.90;;;;;;4957813;28;20205;-70
2021/08/22 12:49:08;;;;;;;3.95;2.95;;;23.90;99.90;;;;;;4954765;28;20189;-70
2021/08/22 12:51:36;;;;;;;3.72;3.03;;;23.70;99.90;;;;;;4950726;28;20200;-70
2021/08/22 12:54:02;;;;;;;4.63;3.25;;;23.50;99.90;;;;;;4931173;28;20284;-68
2021/08/22 12:56:28;;;;;;;3.60;3.20;;;23.40;99.90;;;;;;4944109;28;20210;-69
2021/08/22 12:58:54;;;;;;;3.65;3.35;;;23.40;99.90;;;;;;4946429;28;20197;-68